Time,TemperatureF,DewpointF,PressureIn,WindDirection,WindDirectionDegrees,WindSpeedMPH,WindSpeedGustMPH,Humidity,HourlyPrecipIn,Conditions,Clouds,dailyrainin,SoftwareType,DateUTC
2013-06-23 00:00:00,73.0,45.0,-100.00,South,187,2.0,-999.0,37,0.00,,,-99.99,,2013-06-23 07:00:00,
2013-06-23 00:34:00,73.0,45.0,-100.00,South,187,2.0,-999.0,37,0.00,,,-99.99,,2013-06-23 07:34:00,
2013-06-23 00:53:00,73.0,45.0,-100.00,South,187,2.0,-999.0,37,0.00,,,-99.99,,2013-06-23 07:53:00,
2013-06-23 01:00:00,69.0,45.0,-100.00,SSE,154,2.0,-999.0,41,0.00,,,-99.99,,2013-06-23 08:00:00,
2013-06-23 01:34:00,69.0,45.0,-100.00,SSE,154,2.0,-999.0,41,0.00,,,-99.99,,2013-06-23 08:34:00,
2013-06-23 01:53:00,69.0,45.0,-100.00,SSE,154,2.0,-999.0,41,0.00,,,-99.99,,2013-06-23 08:53:00,
2013-06-23 02:00:00,70.0,45.0,-100.00,SSE,168,4.0,-999.0,41,0.00,,,-99.99,,2013-06-23 09:00:00,
2013-06-23 02:22:00,70.0,45.0,-100.00,SSE,168,4.0,-999.0,41,0.00,,,-99.99,,2013-06-23 09:22:00,
2013-06-23 02:34:00,70.0,45.0,-100.00,SSE,168,4.0,-999.0,41,0.00,,,-99.99,,2013-06-23 09:34:00,
2013-06-23 02:53:00,70.0,45.0,-100.00,SSE,168,4.0,-999.0,41,0.00,,,-99.99,,2013-06-23 09:53:00,
2013-06-23 03:00:00,68.0,44.0,-100.00,SSW,200,4.0,-999.0,41,0.00,,,-99.99,,2013-06-23 10:00:00,
2013-06-23 03:34:00,68.0,44.0,-100.00,SSW,200,4.0,-999.0,41,0.00,,,-99.99,,2013-06-23 10:34:00,
2013-06-23 03:53:00,68.0,44.0,-100.00,SSW,200,4.0,-999.0,41,0.00,,,-99.99,,2013-06-23 10:53:00,
2013-06-23 04:00:00,63.0,45.0,-100.00,SE,133,2.0,-999.0,51,0.00,,,-99.99,,2013-06-23 11:00:00,
2013-06-23 04:22:00,63.0,45.0,-100.00,SE,133,2.0,-999.0,51,0.00,,,-99.99,,2013-06-23 11:22:00,
2013-06-23 04:33:00,63.0,45.0,-100.00,SE,133,2.0,-999.0,51,0.00,,,-99.99,,2013-06-23 11:33:00,
2013-06-23 04:53:00,63.0,45.0,-100.00,SE,133,2.0,-999.0,51,0.00,,,-99.99,,2013-06-23 11:53:00,
2013-06-23 05:33:00,61.0,46.0,-100.00,SSE,151,3.0,-999.0,57,0.00,,,-99.99,,2013-06-23 12:33:00,
2013-06-23 05:43:00,61.0,46.0,-100.00,SSE,151,3.0,-999.0,57,0.00,,,-99.99,,2013-06-23 12:43:00,
2013-06-23 05:53:00,61.0,46.0,-100.00,SSE,151,3.0,-999.0,57,0.00,,,-99.99,,2013-06-23 12:53:00,
2013-06-23 06:00:00,59.0,44.0,-100.00,SSE,155,2.0,-999.0,58,0.00,,,-99.99,,2013-06-23 13:00:00,
2013-06-23 06:54:00,59.0,44.0,-100.00,SSE,155,2.0,-999.0,58,0.00,,,-99.99,,2013-06-23 13:54:00,
2013-06-23 07:00:00,60.0,45.0,-100.00,SSE,147,4.0,-999.0,57,0.00,,,-99.99,,2013-06-23 14:00:00,
2013-06-23 07:34:00,60.0,45.0,-100.00,SSE,147,4.0,-999.0,57,0.00,,,-99.99,,2013-06-23 14:34:00,
2013-06-23 07:44:00,60.0,45.0,-100.00,SSE,147,4.0,-999.0,57,0.00,,,-99.99,,2013-06-23 14:44:00,
2013-06-23 07:52:00,60.0,45.0,-100.00,SSE,147,4.0,-999.0,57,0.00,,,-99.99,,2013-06-23 14:52:00,
2013-06-23 08:00:00,68.0,45.0,-100.00,SSE,165,4.0,-999.0,44,0.00,,,-99.99,,2013-06-23 15:00:00,
2013-06-23 08:35:00,68.0,45.0,-100.00,SSE,165,4.0,-999.0,44,0.00,,,-99.99,,2013-06-23 15:35:00,
2013-06-23 08:52:00,68.0,45.0,-100.00,SSE,165,4.0,-999.0,44,0.00,,,-99.99,,2013-06-23 15:52:00,
2013-06-23 09:00:00,74.0,44.0,-100.00,SW,225,8.0,-999.0,34,0.00,,,-99.99,,2013-06-23 16:00:00,
2013-06-23 09:36:00,74.0,44.0,-100.00,SW,225,8.0,-999.0,34,0.00,,,-99.99,,2013-06-23 16:36:00,
2013-06-23 09:53:00,74.0,44.0,-100.00,SW,225,8.0,-999.0,34,0.00,,,-99.99,,2013-06-23 16:53:00,
2013-06-23 10:00:00,74.0,46.0,-100.00,West,278,6.0,-999.0,35,0.00,,,-99.99,,2013-06-23 17:00:00,
2013-06-23 10:22:00,74.0,46.0,-100.00,West,278,6.0,-999.0,35,0.00,,,-99.99,,2013-06-23 17:22:00,
2013-06-23 10:33:00,74.0,46.0,-100.00,West,278,6.0,-999.0,35,0.00,,,-99.99,,2013-06-23 17:33:00,
2013-06-23 10:53:00,74.0,46.0,-100.00,West,278,6.0,-999.0,35,0.00,,,-99.99,,2013-06-23 17:53:00,
2013-06-23 11:00:00,78.0,46.0,-100.00,WSW,258,4.0,-999.0,32,0.00,,,-99.99,,2013-06-23 18:00:00,
2013-06-23 11:34:00,78.0,46.0,-100.00,WSW,258,4.0,-999.0,32,0.00,,,-99.99,,2013-06-23 18:34:00,
2013-06-23 11:53:00,78.0,46.0,-100.00,WSW,258,4.0,-999.0,32,0.00,,,-99.99,,2013-06-23 18:53:00,
2013-06-23 12:00:00,80.0,47.0,-100.00,WSW,257,11.0,-999.0,32,0.00,,,-99.99,,2013-06-23 19:00:00,
2013-06-23 12:32:00,80.0,47.0,-100.00,WSW,257,11.0,-999.0,32,0.00,,,-99.99,,2013-06-23 19:32:00,
2013-06-23 12:43:00,80.0,47.0,-100.00,WSW,257,11.0,-999.0,32,0.00,,,-99.99,,2013-06-23 19:43:00,
2013-06-23 12:53:00,80.0,47.0,-100.00,WSW,257,11.0,-999.0,32,0.00,,,-99.99,,2013-06-23 19:53:00,
2013-06-23 13:00:00,82.0,48.0,-100.00,NNW,346,4.0,-999.0,30,0.00,,,-99.99,,2013-06-23 20:00:00,
2013-06-23 13:34:00,82.0,48.0,-100.00,NNW,346,4.0,-999.0,30,0.00,,,-99.99,,2013-06-23 20:34:00,
2013-06-23 13:53:00,82.0,48.0,-100.00,NNW,346,4.0,-999.0,30,0.00,,,-99.99,,2013-06-23 20:53:00,
2013-06-23 14:00:00,83.0,49.0,-100.00,North,352,7.0,-999.0,31,0.00,,,-99.99,,2013-06-23 21:00:00,
2013-06-23 14:22:00,83.0,49.0,-100.00,North,352,7.0,-999.0,31,0.00,,,-99.99,,2013-06-23 21:22:00,
2013-06-23 14:34:00,83.0,49.0,-100.00,North,352,7.0,-999.0,31,0.00,,,-99.99,,2013-06-23 21:34:00,
2013-06-23 14:52:00,83.0,49.0,-100.00,North,352,7.0,-999.0,31,0.00,,,-99.99,,2013-06-23 21:52:00,
2013-06-23 15:00:00,85.0,49.0,-100.00,West,279,9.0,-999.0,29,0.00,,,-99.99,,2013-06-23 22:00:00,
2013-06-23 15:32:00,85.0,49.0,-100.00,West,279,9.0,-999.0,29,0.00,,,-99.99,,2013-06-23 22:32:00,
2013-06-23 15:53:00,85.0,49.0,-100.00,West,279,9.0,-999.0,29,0.00,,,-99.99,,2013-06-23 22:53:00,
2013-06-23 16:00:00,85.0,48.0,-100.00,NW,317,10.0,-999.0,27,0.00,,,-99.99,,2013-06-23 23:00:00,
2013-06-23 16:33:00,85.0,48.0,-100.00,NW,317,10.0,-999.0,27,0.00,,,-99.99,,2013-06-23 23:33:00,
2013-06-23 16:44:00,85.0,48.0,-100.00,NW,317,10.0,-999.0,27,0.00,,,-99.99,,2013-06-23 23:44:00,
2013-06-23 16:52:00,85.0,48.0,-100.00,NW,317,10.0,-999.0,27,0.00,,,-99.99,,2013-06-23 23:52:00,
2013-06-23 17:00:00,84.0,49.0,-100.00,West,281,11.0,-999.0,30,0.00,,,-99.99,,2013-06-24 00:00:00,
2013-06-23 17:33:00,84.0,49.0,-100.00,West,281,11.0,-999.0,30,0.00,,,-99.99,,2013-06-24 00:33:00,
2013-06-23 17:42:00,84.0,49.0,-100.00,West,281,11.0,-999.0,30,0.00,,,-99.99,,2013-06-24 00:42:00,
2013-06-23 17:52:00,84.0,49.0,-100.00,West,281,11.0,-999.0,30,0.00,,,-99.99,,2013-06-24 00:52:00,
2013-06-23 18:00:00,83.0,47.0,-100.00,NW,322,16.0,-999.0,27,0.00,,,-99.99,,2013-06-24 01:00:00,
2013-06-23 18:32:00,83.0,47.0,-100.00,NW,322,16.0,-999.0,27,0.00,,,-99.99,,2013-06-24 01:32:00,
2013-06-23 18:42:00,83.0,47.0,-100.00,NW,322,16.0,-999.0,27,0.00,,,-99.99,,2013-06-24 01:42:00,
2013-06-23 18:53:00,83.0,47.0,-100.00,NW,322,16.0,-999.0,27,0.00,,,-99.99,,2013-06-24 01:53:00,
2013-06-23 19:00:00,82.0,48.0,-100.00,NW,312,11.0,-999.0,30,0.00,,,-99.99,,2013-06-24 02:00:00,
2013-06-23 19:33:00,82.0,48.0,-100.00,NW,312,11.0,-999.0,30,0.00,,,-99.99,,2013-06-24 02:33:00,
2013-06-23 19:42:00,82.0,48.0,-100.00,NW,312,11.0,-999.0,30,0.00,,,-99.99,,2013-06-24 02:42:00,
2013-06-23 19:53:00,82.0,48.0,-100.00,NW,312,11.0,-999.0,30,0.00,,,-99.99,,2013-06-24 02:53:00,
2013-06-23 20:00:00,80.0,47.0,-100.00,NW,325,5.0,-999.0,31,0.00,,,-99.99,,2013-06-24 03:00:00,
2013-06-23 20:33:00,80.0,47.0,-100.00,NW,325,5.0,-999.0,31,0.00,,,-99.99,,2013-06-24 03:33:00,
2013-06-23 20:53:00,80.0,47.0,-100.00,NW,325,5.0,-999.0,31,0.00,,,-99.99,,2013-06-24 03:53:00,
2013-06-23 21:00:00,76.0,46.0,-100.00,NNW,343,4.0,-999.0,35,0.00,,,-99.99,,2013-06-24 04:00:00,
2013-06-23 21:33:00,76.0,46.0,-100.00,NNW,343,4.0,-999.0,35,0.00,,,-99.99,,2013-06-24 04:33:00,
2013-06-23 21:53:00,76.0,46.0,-100.00,NNW,343,4.0,-999.0,35,0.00,,,-99.99,,2013-06-24 04:53:00,
2013-06-23 22:00:00,72.0,45.0,-100.00,NW,304,4.0,-999.0,38,0.00,,,-99.99,,2013-06-24 05:00:00,
2013-06-23 22:22:00,72.0,45.0,-100.00,NW,304,4.0,-999.0,38,0.00,,,-99.99,,2013-06-24 05:22:00,
2013-06-23 22:54:00,72.0,45.0,-100.00,NW,304,4.0,-999.0,38,0.00,,,-99.99,,2013-06-24 05:54:00,
2013-06-23 23:00:00,69.0,46.0,-100.00,ESE,122,0.0,-999.0,44,0.00,,,-99.99,,2013-06-24 06:00:00,
2013-06-23 23:54:00,69.0,46.0,-100.00,ESE,122,0.0,-999.0,44,0.00,,,-99.99,,2013-06-24 06:54:00,